sensor_id;sensor_type;location;lat;lon;timestamp;P1;durP1;ratioP1;P2;durP2;ratioP2
34200;SDS011;20469;55.638;37.670;2022-08-21T00:00:26;68.30;;;41.85;;
34200;SDS011;20469;55.638;37.670;2022-08-21T00:03:00;67.43;;;41.58;;
34200;SDS011;20469;55.638;37.670;2022-08-21T00:05:35;59.03;;;39.38;;
34200;SDS011;20469;55.638;37.670;2022-08-21T00:08:04;64.30;;;41.47;;
34200;SDS011;20469;55.638;37.670;2022-08-21T00:10:31;60.78;;;40.67;;
34200;SDS011;20469;55.638;37.670;2022-08-21T00:13:06;57.83;;;39.90;;
34200;SDS011;20469;55.638;37.670;2022-08-21T00:15:34;64.18;;;40.20;;
34200;SDS011;20469;55.638;37.670;2022-08-21T00:18:04;65.60;;;40.60;;
34200;SDS011;20469;55.638;37.670;2022-08-21T00:20:32;62.28;;;40.03;;
34200;SDS011;20469;55.638;37.670;2022-08-21T00:23:00;61.38;;;38.38;;
34200;SDS011;20469;55.638;37.670;2022-08-21T00:25:28;58.75;;;39.13;;
34200;SDS011;20469;55.638;37.670;2022-08-21T00:27:55;66.97;;;39.28;;
34200;SDS011;20469;55.638;37.670;2022-08-21T00:30:24;61.03;;;39.63;;
34200;SDS011;20469;55.638;37.670;2022-08-21T00:32:53;58.88;;;38.53;;
34200;SDS011;20469;55.638;37.670;2022-08-21T00:35:24;56.22;;;38.58;;
34200;SDS011;20469;55.638;37.670;2022-08-21T00:37:54;60.85;;;38.17;;
34200;SDS011;20469;55.638;37.670;2022-08-21T00:40:28;66.28;;;39.40;;
34200;SDS011;20469;55.638;37.670;2022-08-21T00:43:02;58.90;;;38.95;;
34200;SDS011;20469;55.638;37.670;2022-08-21T00:45:30;61.53;;;40.13;;
34200;SDS011;20469;55.638;37.670;2022-08-21T00:47:58;69.35;;;41.35;;
34200;SDS011;20469;55.638;37.670;2022-08-21T00:50:26;56.60;;;37.60;;
34200;SDS011;20469;55.638;37.670;2022-08-21T00:52:58;61.83;;;39.25;;
34200;SDS011;20469;55.638;37.670;2022-08-21T00:55:28;61.92;;;40.25;;
34200;SDS011;20469;55.638;37.670;2022-08-21T00:57:58;58.92;;;38.33;;
34200;SDS011;20469;55.638;37.670;2022-08-21T01:00:31;62.83;;;39.80;;
34200;SDS011;20469;55.638;37.670;2022-08-21T01:03:05;63.60;;;40.28;;
34200;SDS011;20469;55.638;37.670;2022-08-21T01:05:36;63.13;;;40.25;;
34200;SDS011;20469;55.638;37.670;2022-08-21T01:08:04;60.67;;;40.47;;
34200;SDS011;20469;55.638;37.670;2022-08-21T01:10:32;61.90;;;40.17;;
34200;SDS011;20469;55.638;37.670;2022-08-21T01:13:04;59.10;;;39.10;;
34200;SDS011;20469;55.638;37.670;2022-08-21T01:15:35;60.50;;;38.70;;
34200;SDS011;20469;55.638;37.670;2022-08-21T01:18:05;57.67;;;38.55;;
34200;SDS011;20469;55.638;37.670;2022-08-21T01:20:35;63.63;;;39.45;;
34200;SDS011;20469;55.638;37.670;2022-08-21T01:23:04;61.42;;;39.42;;
34200;SDS011;20469;55.638;37.670;2022-08-21T01:25:32;60.78;;;39.20;;
34200;SDS011;20469;55.638;37.670;2022-08-21T01:28:03;59.30;;;37.92;;
34200;SDS011;20469;55.638;37.670;2022-08-21T01:30:35;64.40;;;39.03;;
34200;SDS011;20469;55.638;37.670;2022-08-21T01:33:03;64.68;;;39.30;;
34200;SDS011;20469;55.638;37.670;2022-08-21T01:35:31;55.45;;;36.55;;
34200;SDS011;20469;55.638;37.670;2022-08-21T01:37:58;60.45;;;36.63;;
34200;SDS011;20469;55.638;37.670;2022-08-21T01:40:25;54.42;;;37.55;;
34200;SDS011;20469;55.638;37.670;2022-08-21T01:42:53;55.83;;;36.17;;
34200;SDS011;20469;55.638;37.670;2022-08-21T01:45:21;55.15;;;36.67;;
34200;SDS011;20469;55.638;37.670;2022-08-21T01:47:48;56.38;;;36.55;;
34200;SDS011;20469;55.638;37.670;2022-08-21T01:50:16;58.70;;;36.60;;
34200;SDS011;20469;55.638;37.670;2022-08-21T01:52:45;55.33;;;35.70;;
34200;SDS011;20469;55.638;37.670;2022-08-21T01:55:13;55.65;;;34.65;;
34200;SDS011;20469;55.638;37.670;2022-08-21T01:57:41;54.45;;;34.97;;
34200;SDS011;20469;55.638;37.670;2022-08-21T02:00:10;55.05;;;34.67;;
34200;SDS011;20469;55.638;37.670;2022-08-21T02:02:40;56.97;;;35.92;;
34200;SDS011;20469;55.638;37.670;2022-08-21T02:05:08;59.85;;;35.40;;
34200;SDS011;20469;55.638;37.670;2022-08-21T02:07:38;58.63;;;34.55;;
34200;SDS011;20469;55.638;37.670;2022-08-21T02:10:11;54.97;;;34.33;;
34200;SDS011;20469;55.638;37.670;2022-08-21T02:12:39;51.58;;;34.38;;
34200;SDS011;20469;55.638;37.670;2022-08-21T02:15:27;52.67;;;35.08;;
34200;SDS011;20469;55.638;37.670;2022-08-21T02:17:57;52.42;;;34.17;;
34200;SDS011;20469;55.638;37.670;2022-08-21T02:20:42;49.45;;;32.65;;
34200;SDS011;20469;55.638;37.670;2022-08-21T02:23:12;52.67;;;33.95;;
34200;SDS011;20469;55.638;37.670;2022-08-21T02:25:56;50.60;;;32.30;;
34200;SDS011;20469;55.638;37.670;2022-08-21T02:28:29;50.88;;;32.85;;
34200;SDS011;20469;55.638;37.670;2022-08-21T02:30:57;51.08;;;32.33;;
34200;SDS011;20469;55.638;37.670;2022-08-21T02:33:24;52.67;;;32.70;;
34200;SDS011;20469;55.638;37.670;2022-08-21T02:35:52;51.47;;;32.92;;
34200;SDS011;20469;55.638;37.670;2022-08-21T02:38:25;52.13;;;32.42;;
34200;SDS011;20469;55.638;37.670;2022-08-21T02:40:54;53.75;;;33.22;;
34200;SDS011;20469;55.638;37.670;2022-08-21T02:43:23;49.30;;;31.98;;
34200;SDS011;20469;55.638;37.670;2022-08-21T02:45:52;50.72;;;32.17;;
34200;SDS011;20469;55.638;37.670;2022-08-21T02:48:23;54.70;;;31.20;;
34200;SDS011;20469;55.638;37.670;2022-08-21T02:50:56;51.88;;;31.50;;
34200;SDS011;20469;55.638;37.670;2022-08-21T02:53:29;48.22;;;31.35;;
34200;SDS011;20469;55.638;37.670;2022-08-21T02:55:58;55.05;;;32.25;;
34200;SDS011;20469;55.638;37.670;2022-08-21T02:58:27;50.42;;;30.92;;
34200;SDS011;20469;55.638;37.670;2022-08-21T03:00:57;49.58;;;31.52;;
34200;SDS011;20469;55.638;37.670;2022-08-21T03:03:25;47.85;;;31.40;;
34200;SDS011;20469;55.638;37.670;2022-08-21T03:05:54;49.17;;;30.92;;
34200;SDS011;20469;55.638;37.670;2022-08-21T03:08:22;48.53;;;30.95;;
34200;SDS011;20469;55.638;37.670;2022-08-21T03:10:53;49.75;;;31.60;;
34200;SDS011;20469;55.638;37.670;2022-08-21T03:13:21;49.55;;;31.92;;
34200;SDS011;20469;55.638;37.670;2022-08-21T03:15:50;49.33;;;30.85;;
34200;SDS011;20469;55.638;37.670;2022-08-21T03:18:18;48.28;;;31.02;;
34200;SDS011;20469;55.638;37.670;2022-08-21T03:20:46;52.33;;;31.40;;
34200;SDS011;20469;55.638;37.670;2022-08-21T03:23:15;44.20;;;31.33;;
34200;SDS011;20469;55.638;37.670;2022-08-21T03:25:45;53.28;;;30.80;;
34200;SDS011;20469;55.638;37.670;2022-08-21T03:28:15;47.85;;;30.80;;
34200;SDS011;20469;55.638;37.670;2022-08-21T03:30:46;45.47;;;31.67;;
34200;SDS011;20469;55.638;37.670;2022-08-21T03:33:15;52.47;;;32.95;;
34200;SDS011;20469;55.638;37.670;2022-08-21T03:35:47;48.08;;;31.63;;
34200;SDS011;20469;55.638;37.670;2022-08-21T03:38:24;52.47;;;31.67;;
34200;SDS011;20469;55.638;37.670;2022-08-21T03:40:53;48.10;;;32.90;;
34200;SDS011;20469;55.638;37.670;2022-08-21T03:43:21;49.08;;;33.67;;
34200;SDS011;20469;55.638;37.670;2022-08-21T03:45:48;51.80;;;32.25;;
34200;SDS011;20469;55.638;37.670;2022-08-21T03:48:18;47.83;;;32.38;;
34200;SDS011;20469;55.638;37.670;2022-08-21T03:50:45;52.00;;;32.92;;
34200;SDS011;20469;55.638;37.670;2022-08-21T03:53:14;56.58;;;35.17;;
34200;SDS011;20469;55.638;37.670;2022-08-21T03:55:45;54.60;;;34.70;;
34200;SDS011;20469;55.638;37.670;2022-08-21T03:58:14;56.05;;;35.60;;
34200;SDS011;20469;55.638;37.670;2022-08-21T04:00:44;53.05;;;34.35;;
34200;SDS011;20469;55.638;37.670;2022-08-21T04:03:12;52.17;;;36.08;;
34200;SDS011;20469;55.638;37.670;2022-08-21T04:05:39;55.20;;;35.15;;
34200;SDS011;20469;55.638;37.670;2022-08-21T04:08:07;58.00;;;37.35;;
34200;SDS011;20469;55.638;37.670;2022-08-21T04:10:35;56.15;;;35.75;;
34200;SDS011;20469;55.638;37.670;2022-08-21T04:13:04;57.13;;;36.50;;
34200;SDS011;20469;55.638;37.670;2022-08-21T04:15:32;53.80;;;37.55;;
34200;SDS011;20469;55.638;37.670;2022-08-21T04:17:59;57.17;;;36.10;;
34200;SDS011;20469;55.638;37.670;2022-08-21T04:20:27;57.35;;;37.08;;
34200;SDS011;20469;55.638;37.670;2022-08-21T04:22:55;58.63;;;36.90;;
34200;SDS011;20469;55.638;37.670;2022-08-21T04:25:23;57.53;;;38.38;;
34200;SDS011;20469;55.638;37.670;2022-08-21T04:27:54;56.85;;;39.25;;
34200;SDS011;20469;55.638;37.670;2022-08-21T04:30:21;53.47;;;37.75;;
34200;SDS011;20469;55.638;37.670;2022-08-21T04:32:54;61.20;;;39.78;;
34200;SDS011;20469;55.638;37.670;2022-08-21T04:35:24;56.83;;;38.08;;
34200;SDS011;20469;55.638;37.670;2022-08-21T04:37:53;59.97;;;38.97;;
34200;SDS011;20469;55.638;37.670;2022-08-21T04:40:20;57.03;;;39.38;;
34200;SDS011;20469;55.638;37.670;2022-08-21T04:42:50;53.08;;;39.05;;
34200;SDS011;20469;55.638;37.670;2022-08-21T04:45:24;57.90;;;40.38;;
34200;SDS011;20469;55.638;37.670;2022-08-21T04:47:55;63.75;;;39.83;;
34200;SDS011;20469;55.638;37.670;2022-08-21T04:53:22;63.15;;;41.40;;
34200;SDS011;20469;55.638;37.670;2022-08-21T04:55:52;65.95;;;42.30;;
34200;SDS011;20469;55.638;37.670;2022-08-21T04:58:23;59.53;;;42.80;;
34200;SDS011;20469;55.638;37.670;2022-08-21T05:00:53;63.83;;;42.78;;
34200;SDS011;20469;55.638;37.670;2022-08-21T05:03:24;62.13;;;43.22;;
34200;SDS011;20469;55.638;37.670;2022-08-21T05:05:51;68.97;;;43.60;;
34200;SDS011;20469;55.638;37.670;2022-08-21T05:08:19;67.15;;;44.67;;
34200;SDS011;20469;55.638;37.670;2022-08-21T05:10:50;63.42;;;44.15;;
34200;SDS011;20469;55.638;37.670;2022-08-21T05:13:22;60.88;;;43.33;;
34200;SDS011;20469;55.638;37.670;2022-08-21T05:15:49;63.03;;;42.80;;
34200;SDS011;20469;55.638;37.670;2022-08-21T05:18:16;60.50;;;42.72;;
34200;SDS011;20469;55.638;37.670;2022-08-21T05:20:43;58.45;;;42.70;;
34200;SDS011;20469;55.638;37.670;2022-08-21T05:23:12;59.53;;;41.78;;
34200;SDS011;20469;55.638;37.670;2022-08-21T05:25:41;56.70;;;40.22;;
34200;SDS011;20469;55.638;37.670;2022-08-21T05:28:09;64.32;;;42.17;;
34200;SDS011;20469;55.638;37.670;2022-08-21T05:30:37;61.30;;;41.20;;
34200;SDS011;20469;55.638;37.670;2022-08-21T05:33:05;64.10;;;42.63;;
34200;SDS011;20469;55.638;37.670;2022-08-21T05:35:33;65.60;;;42.58;;
34200;SDS011;20469;55.638;37.670;2022-08-21T05:38:00;56.90;;;40.78;;
34200;SDS011;20469;55.638;37.670;2022-08-21T05:40:28;61.65;;;42.33;;
34200;SDS011;20469;55.638;37.670;2022-08-21T05:42:56;63.45;;;42.72;;
34200;SDS011;20469;55.638;37.670;2022-08-21T05:45:25;64.05;;;41.55;;
34200;SDS011;20469;55.638;37.670;2022-08-21T05:48:18;68.90;;;42.58;;
34200;SDS011;20469;55.638;37.670;2022-08-21T05:50:49;57.72;;;41.17;;
34200;SDS011;20469;55.638;37.670;2022-08-21T05:53:18;60.42;;;40.30;;
34200;SDS011;20469;55.638;37.670;2022-08-21T05:55:47;64.15;;;40.78;;
34200;SDS011;20469;55.638;37.670;2022-08-21T05:58:17;56.38;;;38.50;;
34200;SDS011;20469;55.638;37.670;2022-08-21T06:00:46;57.10;;;40.50;;
34200;SDS011;20469;55.638;37.670;2022-08-21T06:03:22;61.25;;;40.20;;
34200;SDS011;20469;55.638;37.670;2022-08-21T06:05:51;57.22;;;39.83;;
34200;SDS011;20469;55.638;37.670;2022-08-21T06:08:20;54.78;;;36.60;;
34200;SDS011;20469;55.638;37.670;2022-08-21T06:10:48;54.03;;;38.20;;
34200;SDS011;20469;55.638;37.670;2022-08-21T06:13:18;53.03;;;36.65;;
34200;SDS011;20469;55.638;37.670;2022-08-21T06:15:46;50.28;;;37.20;;
34200;SDS011;20469;55.638;37.670;2022-08-21T06:18:13;56.88;;;36.75;;
34200;SDS011;20469;55.638;37.670;2022-08-21T06:20:41;51.80;;;35.88;;
34200;SDS011;20469;55.638;37.670;2022-08-21T06:23:08;52.72;;;35.75;;
34200;SDS011;20469;55.638;37.670;2022-08-21T06:25:36;55.05;;;34.70;;
34200;SDS011;20469;55.638;37.670;2022-08-21T06:28:09;54.70;;;35.70;;
34200;SDS011;20469;55.638;37.670;2022-08-21T06:30:37;48.85;;;34.30;;
34200;SDS011;20469;55.638;37.670;2022-08-21T06:33:05;53.35;;;34.08;;
34200;SDS011;20469;55.638;37.670;2022-08-21T06:35:43;53.35;;;35.13;;
34200;SDS011;20469;55.638;37.670;2022-08-21T06:38:11;54.00;;;34.45;;
34200;SDS011;20469;55.638;37.670;2022-08-21T06:40:38;50.45;;;34.53;;
34200;SDS011;20469;55.638;37.670;2022-08-21T06:43:13;48.78;;;33.50;;
34200;SDS011;20469;55.638;37.670;2022-08-21T06:45:43;51.45;;;33.55;;
34200;SDS011;20469;55.638;37.670;2022-08-21T06:48:10;51.33;;;33.30;;
34200;SDS011;20469;55.638;37.670;2022-08-21T06:50:44;44.92;;;31.88;;
34200;SDS011;20469;55.638;37.670;2022-08-21T06:53:13;50.20;;;33.65;;
34200;SDS011;20469;55.638;37.670;2022-08-21T06:55:42;52.22;;;32.38;;
34200;SDS011;20469;55.638;37.670;2022-08-21T06:58:09;50.45;;;32.47;;
34200;SDS011;20469;55.638;37.670;2022-08-21T07:00:41;49.80;;;31.60;;
34200;SDS011;20469;55.638;37.670;2022-08-21T07:03:23;49.55;;;32.65;;
34200;SDS011;20469;55.638;37.670;2022-08-21T07:05:55;48.15;;;31.50;;
34200;SDS011;20469;55.638;37.670;2022-08-21T07:08:25;46.28;;;32.25;;
34200;SDS011;20469;55.638;37.670;2022-08-21T07:10:54;52.10;;;31.63;;
34200;SDS011;20469;55.638;37.670;2022-08-21T07:13:23;46.75;;;32.63;;
34200;SDS011;20469;55.638;37.670;2022-08-21T07:15:50;47.92;;;32.30;;
34200;SDS011;20469;55.638;37.670;2022-08-21T07:18:18;46.22;;;30.45;;
34200;SDS011;20469;55.638;37.670;2022-08-21T07:20:46;45.15;;;30.80;;
34200;SDS011;20469;55.638;37.670;2022-08-21T07:23:26;46.10;;;29.65;;
34200;SDS011;20469;55.638;37.670;2022-08-21T07:26:02;41.45;;;29.17;;
34200;SDS011;20469;55.638;37.670;2022-08-21T07:28:30;43.88;;;28.88;;
34200;SDS011;20469;55.638;37.670;2022-08-21T07:30:58;45.67;;;29.20;;
34200;SDS011;20469;55.638;37.670;2022-08-21T07:33:30;44.20;;;28.40;;
34200;SDS011;20469;55.638;37.670;2022-08-21T07:35:58;44.15;;;29.15;;
34200;SDS011;20469;55.638;37.670;2022-08-21T07:38:26;42.03;;;28.08;;
34200;SDS011;20469;55.638;37.670;2022-08-21T07:40:54;45.78;;;28.00;;
34200;SDS011;20469;55.638;37.670;2022-08-21T07:43:25;35.33;;;24.20;;
34200;SDS011;20469;55.638;37.670;2022-08-21T07:45:52;37.08;;;23.67;;
34200;SDS011;20469;55.638;37.670;2022-08-21T07:48:21;38.88;;;24.63;;
34200;SDS011;20469;55.638;37.670;2022-08-21T07:50:48;37.90;;;24.83;;
34200;SDS011;20469;55.638;37.670;2022-08-21T07:53:17;40.45;;;24.05;;
34200;SDS011;20469;55.638;37.670;2022-08-21T07:55:44;36.08;;;23.55;;
34200;SDS011;20469;55.638;37.670;2022-08-21T07:58:11;39.40;;;23.48;;
34200;SDS011;20469;55.638;37.670;2022-08-21T08:00:39;36.67;;;22.35;;
34200;SDS011;20469;55.638;37.670;2022-08-21T08:03:07;35.22;;;25.02;;
34200;SDS011;20469;55.638;37.670;2022-08-21T08:05:35;42.15;;;24.17;;
34200;SDS011;20469;55.638;37.670;2022-08-21T08:08:06;37.03;;;26.70;;
34200;SDS011;20469;55.638;37.670;2022-08-21T08:10:33;42.60;;;26.77;;
34200;SDS011;20469;55.638;37.670;2022-08-21T08:13:01;43.25;;;26.08;;
34200;SDS011;20469;55.638;37.670;2022-08-21T08:15:29;36.63;;;25.08;;
34200;SDS011;20469;55.638;37.670;2022-08-21T08:18:02;34.38;;;23.42;;
34200;SDS011;20469;55.638;37.670;2022-08-21T08:20:30;35.67;;;22.27;;
34200;SDS011;20469;55.638;37.670;2022-08-21T08:22:57;37.25;;;23.67;;
34200;SDS011;20469;55.638;37.670;2022-08-21T08:25:26;34.80;;;23.10;;
34200;SDS011;20469;55.638;37.670;2022-08-21T08:28:01;39.45;;;22.65;;
34200;SDS011;20469;55.638;37.670;2022-08-21T08:30:43;28.58;;;19.92;;
34200;SDS011;20469;55.638;37.670;2022-08-21T08:33:14;39.55;;;21.00;;
34200;SDS011;20469;55.638;37.670;2022-08-21T08:35:44;29.30;;;19.42;;
34200;SDS011;20469;55.638;37.670;2022-08-21T08:38:14;30.30;;;18.75;;
34200;SDS011;20469;55.638;37.670;2022-08-21T08:43:31;27.38;;;17.50;;
34200;SDS011;20469;55.638;37.670;2022-08-21T08:46:01;27.17;;;16.92;;
34200;SDS011;20469;55.638;37.670;2022-08-21T08:54:09;26.25;;;16.77;;
34200;SDS011;20469;55.638;37.670;2022-08-21T08:56:40;27.23;;;17.05;;
34200;SDS011;20469;55.638;37.670;2022-08-21T08:59:11;31.50;;;17.40;;
34200;SDS011;20469;55.638;37.670;2022-08-21T09:01:44;23.60;;;17.13;;
34200;SDS011;20469;55.638;37.670;2022-08-21T09:04:13;25.92;;;17.02;;
34200;SDS011;20469;55.638;37.670;2022-08-21T09:07:06;33.05;;;18.08;;
34200;SDS011;20469;55.638;37.670;2022-08-21T09:09:49;29.45;;;17.27;;
34200;SDS011;20469;55.638;37.670;2022-08-21T09:12:51;29.25;;;17.17;;
34200;SDS011;20469;55.638;37.670;2022-08-21T09:15:33;32.63;;;17.08;;
34200;SDS011;20469;55.638;37.670;2022-08-21T09:26:31;21.13;;;11.48;;
34200;SDS011;20469;55.638;37.670;2022-08-21T09:29:12;22.40;;;12.32;;
34200;SDS011;20469;55.638;37.670;2022-08-21T09:31:39;20.27;;;12.07;;
34200;SDS011;20469;55.638;37.670;2022-08-21T09:34:08;22.02;;;12.15;;
34200;SDS011;20469;55.638;37.670;2022-08-21T09:39:22;15.43;;;9.32;;
34200;SDS011;20469;55.638;37.670;2022-08-21T09:42:10;15.32;;;8.93;;
34200;SDS011;20469;55.638;37.670;2022-08-21T09:44:38;14.20;;;7.95;;
34200;SDS011;20469;55.638;37.670;2022-08-21T09:47:10;15.52;;;8.45;;
34200;SDS011;20469;55.638;37.670;2022-08-21T09:52:20;18.38;;;8.38;;
34200;SDS011;20469;55.638;37.670;2022-08-21T09:54:52;18.60;;;9.07;;
34200;SDS011;20469;55.638;37.670;2022-08-21T09:57:26;15.13;;;9.38;;
34200;SDS011;20469;55.638;37.670;2022-08-21T10:02:50;20.77;;;11.30;;
34200;SDS011;20469;55.638;37.670;2022-08-21T10:05:19;16.05;;;10.07;;
34200;SDS011;20469;55.638;37.670;2022-08-21T10:07:51;21.52;;;10.75;;
34200;SDS011;20469;55.638;37.670;2022-08-21T10:18:38;18.73;;;8.07;;
34200;SDS011;20469;55.638;37.670;2022-08-21T10:21:19;13.52;;;6.78;;
34200;SDS011;20469;55.638;37.670;2022-08-21T10:24:19;11.95;;;6.30;;
34200;SDS011;20469;55.638;37.670;2022-08-21T10:30:01;17.85;;;6.10;;
34200;SDS011;20469;55.638;37.670;2022-08-21T10:35:12;12.95;;;5.25;;
34200;SDS011;20469;55.638;37.670;2022-08-21T10:40:27;8.73;;;4.80;;
34200;SDS011;20469;55.638;37.670;2022-08-21T10:48:37;9.25;;;4.40;;
34200;SDS011;20469;55.638;37.670;2022-08-21T10:52:02;8.30;;;4.03;;
34200;SDS011;20469;55.638;37.670;2022-08-21T10:57:19;11.65;;;4.32;;
34200;SDS011;20469;55.638;37.670;2022-08-21T11:00:10;8.63;;;3.58;;
34200;SDS011;20469;55.638;37.670;2022-08-21T11:05:24;11.40;;;3.63;;
34200;SDS011;20469;55.638;37.670;2022-08-21T11:08:17;10.45;;;3.90;;
34200;SDS011;20469;55.638;37.670;2022-08-21T11:10:59;11.82;;;3.55;;
34200;SDS011;20469;55.638;37.670;2022-08-21T11:16:41;17.30;;;4.78;;
34200;SDS011;20469;55.638;37.670;2022-08-21T11:29:54;16.10;;;6.70;;
34200;SDS011;20469;55.638;37.670;2022-08-21T11:35:21;17.55;;;7.90;;
34200;SDS011;20469;55.638;37.670;2022-08-21T11:38:11;17.75;;;8.20;;
34200;SDS011;20469;55.638;37.670;2022-08-21T11:43:49;17.25;;;9.07;;
34200;SDS011;20469;55.638;37.670;2022-08-21T11:46:39;14.60;;;9.65;;
34200;SDS011;20469;55.638;37.670;2022-08-21T11:50:43;16.92;;;10.98;;
34200;SDS011;20469;55.638;37.670;2022-08-21T11:52:31;27.67;;;11.95;;
34200;SDS011;20469;55.638;37.670;2022-08-21T11:55:15;25.20;;;12.90;;
34200;SDS011;20469;55.638;37.670;2022-08-21T11:57:57;22.65;;;13.63;;
34200;SDS011;20469;55.638;37.670;2022-08-21T12:00:33;26.05;;;13.88;;
34200;SDS011;20469;55.638;37.670;2022-08-21T12:03:33;19.83;;;10.68;;
34200;SDS011;20469;55.638;37.670;2022-08-21T12:06:07;23.98;;;10.43;;
34200;SDS011;20469;55.638;37.670;2022-08-21T12:08:43;17.85;;;8.32;;
34200;SDS011;20469;55.638;37.670;2022-08-21T12:14:10;17.38;;;6.53;;
34200;SDS011;20469;55.638;37.670;2022-08-21T12:16:41;20.70;;;6.10;;
34200;SDS011;20469;55.638;37.670;2022-08-21T12:19:16;15.10;;;4.85;;
34200;SDS011;20469;55.638;37.670;2022-08-21T12:26:55;10.52;;;3.15;;
34200;SDS011;20469;55.638;37.670;2022-08-21T12:29:25;8.23;;;2.90;;
34200;SDS011;20469;55.638;37.670;2022-08-21T12:34:20;8.50;;;2.45;;
34200;SDS011;20469;55.638;37.670;2022-08-21T12:37:21;9.88;;;2.72;;
34200;SDS011;20469;55.638;37.670;2022-08-21T12:40:23;6.20;;;2.38;;
34200;SDS011;20469;55.638;37.670;2022-08-21T12:42:55;14.73;;;2.47;;
34200;SDS011;20469;55.638;37.670;2022-08-21T12:45:28;16.67;;;2.90;;
34200;SDS011;20469;55.638;37.670;2022-08-21T12:51:18;8.70;;;2.35;;
34200;SDS011;20469;55.638;37.670;2022-08-21T12:53:56;12.90;;;3.05;;
34200;SDS011;20469;55.638;37.670;2022-08-21T12:56:26;11.98;;;3.47;;
34200;SDS011;20469;55.638;37.670;2022-08-21T12:59:00;15.60;;;3.78;;
34200;SDS011;20469;55.638;37.670;2022-08-21T13:01:39;12.52;;;4.07;;
34200;SDS011;20469;55.638;37.670;2022-08-21T13:04:15;11.07;;;4.72;;
34200;SDS011;20469;55.638;37.670;2022-08-21T13:06:45;12.45;;;4.97;;
34200;SDS011;20469;55.638;37.670;2022-08-21T13:09:19;11.18;;;4.97;;
34200;SDS011;20469;55.638;37.670;2022-08-21T13:11:51;11.98;;;3.97;;
34200;SDS011;20469;55.638;37.670;2022-08-21T13:14:28;16.05;;;4.78;;
34200;SDS011;20469;55.638;37.670;2022-08-21T13:16:59;13.82;;;4.40;;
34200;SDS011;20469;55.638;37.670;2022-08-21T13:19:27;16.45;;;4.32;;
34200;SDS011;20469;55.638;37.670;2022-08-21T13:21:55;15.95;;;4.38;;
34200;SDS011;20469;55.638;37.670;2022-08-21T13:24:34;13.55;;;4.55;;
34200;SDS011;20469;55.638;37.670;2022-08-21T13:29:44;14.85;;;4.30;;
34200;SDS011;20469;55.638;37.670;2022-08-21T13:32:21;10.95;;;3.72;;
34200;SDS011;20469;55.638;37.670;2022-08-21T13:34:52;21.80;;;4.40;;
34200;SDS011;20469;55.638;37.670;2022-08-21T13:37:19;11.85;;;4.20;;
34200;SDS011;20469;55.638;37.670;2022-08-21T13:39:51;10.38;;;4.10;;
34200;SDS011;20469;55.638;37.670;2022-08-21T13:42:19;12.65;;;4.53;;
34200;SDS011;20469;55.638;37.670;2022-08-21T13:44:47;17.50;;;4.47;;
34200;SDS011;20469;55.638;37.670;2022-08-21T13:47:15;14.75;;;4.80;;
34200;SDS011;20469;55.638;37.670;2022-08-21T13:49:45;15.75;;;5.03;;
34200;SDS011;20469;55.638;37.670;2022-08-21T13:52:15;12.27;;;4.53;;
34200;SDS011;20469;55.638;37.670;2022-08-21T13:54:55;12.35;;;4.85;;
34200;SDS011;20469;55.638;37.670;2022-08-21T13:57:29;19.15;;;4.85;;
34200;SDS011;20469;55.638;37.670;2022-08-21T14:03:00;18.55;;;5.47;;
34200;SDS011;20469;55.638;37.670;2022-08-21T14:05:34;15.88;;;6.18;;
34200;SDS011;20469;55.638;37.670;2022-08-21T14:08:11;16.55;;;6.55;;
34200;SDS011;20469;55.638;37.670;2022-08-21T14:10:55;17.73;;;6.30;;
34200;SDS011;20469;55.638;37.670;2022-08-21T14:13:42;14.40;;;6.57;;
34200;SDS011;20469;55.638;37.670;2022-08-21T14:17:09;16.45;;;6.45;;
34200;SDS011;20469;55.638;37.670;2022-08-21T14:19:18;16.95;;;7.07;;
34200;SDS011;20469;55.638;37.670;2022-08-21T14:21:48;13.55;;;6.20;;
34200;SDS011;20469;55.638;37.670;2022-08-21T14:26:54;11.32;;;5.65;;
34200;SDS011;20469;55.638;37.670;2022-08-21T14:29:22;15.07;;;4.85;;
34200;SDS011;20469;55.638;37.670;2022-08-21T14:31:56;12.82;;;5.10;;
34200;SDS011;20469;55.638;37.670;2022-08-21T14:34:26;10.32;;;4.57;;
34200;SDS011;20469;55.638;37.670;2022-08-21T14:37:01;9.68;;;3.70;;
34200;SDS011;20469;55.638;37.670;2022-08-21T14:39:28;8.20;;;3.53;;
34200;SDS011;20469;55.638;37.670;2022-08-21T14:42:09;8.18;;;3.58;;
34200;SDS011;20469;55.638;37.670;2022-08-21T14:44:36;12.35;;;3.78;;
34200;SDS011;20469;55.638;37.670;2022-08-21T14:47:03;14.95;;;4.03;;
34200;SDS011;20469;55.638;37.670;2022-08-21T14:49:31;11.27;;;3.28;;
34200;SDS011;20469;55.638;37.670;2022-08-21T14:51:59;10.75;;;3.40;;
34200;SDS011;20469;55.638;37.670;2022-08-21T14:54:27;22.38;;;3.90;;
34200;SDS011;20469;55.638;37.670;2022-08-21T14:57:10;13.77;;;3.05;;
34200;SDS011;20469;55.638;37.670;2022-08-21T14:59:39;8.95;;;2.50;;
34200;SDS011;20469;55.638;37.670;2022-08-21T15:02:07;8.40;;;2.63;;
34200;SDS011;20469;55.638;37.670;2022-08-21T15:04:35;9.13;;;2.58;;
34200;SDS011;20469;55.638;37.670;2022-08-21T15:07:03;4.85;;;2.75;;
34200;SDS011;20469;55.638;37.670;2022-08-21T15:09:30;11.18;;;2.80;;
34200;SDS011;20469;55.638;37.670;2022-08-21T15:11:58;13.07;;;2.80;;
34200;SDS011;20469;55.638;37.670;2022-08-21T15:14:29;12.18;;;2.92;;
34200;SDS011;20469;55.638;37.670;2022-08-21T15:16:59;10.55;;;3.10;;
34200;SDS011;20469;55.638;37.670;2022-08-21T15:19:27;5.15;;;2.30;;
34200;SDS011;20469;55.638;37.670;2022-08-21T15:21:56;8.52;;;2.40;;
34200;SDS011;20469;55.638;37.670;2022-08-21T15:24:23;8.27;;;2.10;;
34200;SDS011;20469;55.638;37.670;2022-08-21T15:26:51;13.32;;;2.72;;
34200;SDS011;20469;55.638;37.670;2022-08-21T15:29:20;8.93;;;2.28;;
34200;SDS011;20469;55.638;37.670;2022-08-21T15:31:53;8.93;;;2.17;;
34200;SDS011;20469;55.638;37.670;2022-08-21T15:34:22;10.07;;;2.20;;
34200;SDS011;20469;55.638;37.670;2022-08-21T15:36:56;5.75;;;1.90;;
34200;SDS011;20469;55.638;37.670;2022-08-21T15:39:25;9.10;;;2.53;;
34200;SDS011;20469;55.638;37.670;2022-08-21T15:41:56;9.80;;;2.30;;
34200;SDS011;20469;55.638;37.670;2022-08-21T15:44:24;3.80;;;2.10;;
34200;SDS011;20469;55.638;37.670;2022-08-21T15:46:54;8.32;;;2.70;;
34200;SDS011;20469;55.638;37.670;2022-08-21T15:49:23;7.00;;;2.25;;
34200;SDS011;20469;55.638;37.670;2022-08-21T15:51:50;8.45;;;2.42;;
34200;SDS011;20469;55.638;37.670;2022-08-21T15:54:28;11.52;;;2.90;;
34200;SDS011;20469;55.638;37.670;2022-08-21T15:56:55;12.13;;;2.80;;
34200;SDS011;20469;55.638;37.670;2022-08-21T15:59:22;11.82;;;2.70;;
34200;SDS011;20469;55.638;37.670;2022-08-21T16:01:50;13.13;;;3.03;;
34200;SDS011;20469;55.638;37.670;2022-08-21T16:04:21;9.50;;;2.50;;
34200;SDS011;20469;55.638;37.670;2022-08-21T16:06:51;10.48;;;3.03;;
34200;SDS011;20469;55.638;37.670;2022-08-21T16:09:27;12.45;;;2.80;;
34200;SDS011;20469;55.638;37.670;2022-08-21T16:11:54;6.78;;;2.72;;
34200;SDS011;20469;55.638;37.670;2022-08-21T16:14:21;10.40;;;2.95;;
34200;SDS011;20469;55.638;37.670;2022-08-21T16:16:49;8.13;;;2.83;;